sensor_id;sensor_type;location;lat;lon;timestamp;temperature;humidity
12761;DHT22;6444;49.742;6.114;2022-07-29T00:00:58;20.70;98.00
12761;DHT22;6444;49.742;6.114;2022-07-29T00:03:25;20.80;98.10
12761;DHT22;6444;49.742;6.114;2022-07-29T00:05:52;21.40;97.10
12761;DHT22;6444;49.742;6.114;2022-07-29T00:08:19;21.30;97.10
12761;DHT22;6444;49.742;6.114;2022-07-29T00:10:46;21.40;96.80
12761;DHT22;6444;49.742;6.114;2022-07-29T00:13:12;21.60;96.50
12761;DHT22;6444;49.742;6.114;2022-07-29T00:15:40;21.50;96.70
12761;DHT22;6444;49.742;6.114;2022-07-29T00:18:06;21.40;96.60
12761;DHT22;6444;49.742;6.114;2022-07-29T00:20:33;21.60;96.30
12761;DHT22;6444;49.742;6.114;2022-07-29T00:23:00;21.60;96.20
12761;DHT22;6444;49.742;6.114;2022-07-29T00:25:26;21.70;96.20
12761;DHT22;6444;49.742;6.114;2022-07-29T00:27:54;21.30;96.40
12761;DHT22;6444;49.742;6.114;2022-07-29T00:30:20;21.30;96.40
12761;DHT22;6444;49.742;6.114;2022-07-29T00:32:47;21.20;96.20
12761;DHT22;6444;49.742;6.114;2022-07-29T00:35:13;21.10;96.30
12761;DHT22;6444;49.742;6.114;2022-07-29T00:37:58;20.60;97.00
12761;DHT22;6444;49.742;6.114;2022-07-29T00:40:25;20.70;97.00
12761;DHT22;6444;49.742;6.114;2022-07-29T00:42:52;21.00;96.60
12761;DHT22;6444;49.742;6.114;2022-07-29T00:45:18;21.20;96.10
12761;DHT22;6444;49.742;6.114;2022-07-29T00:47:44;21.20;96.10
12761;DHT22;6444;49.742;6.114;2022-07-29T00:50:12;21.30;96.10
12761;DHT22;6444;49.742;6.114;2022-07-29T00:52:39;21.30;96.10
12761;DHT22;6444;49.742;6.114;2022-07-29T00:55:06;21.00;96.60
12761;DHT22;6444;49.742;6.114;2022-07-29T00:57:33;21.00;97.00
12761;DHT22;6444;49.742;6.114;2022-07-29T00:59:59;20.90;96.60
12761;DHT22;6444;49.742;6.114;2022-07-29T01:02:26;20.90;96.60
12761;DHT22;6444;49.742;6.114;2022-07-29T01:04:52;20.90;96.90
12761;DHT22;6444;49.742;6.114;2022-07-29T01:07:20;20.90;96.60
12761;DHT22;6444;49.742;6.114;2022-07-29T01:09:46;20.90;96.60
12761;DHT22;6444;49.742;6.114;2022-07-29T01:12:14;20.90;96.70
12761;DHT22;6444;49.742;6.114;2022-07-29T01:14:40;20.70;96.80
12761;DHT22;6444;49.742;6.114;2022-07-29T01:17:28;20.70;96.70
12761;DHT22;6444;49.742;6.114;2022-07-29T01:20:07;20.50;96.90
12761;DHT22;6444;49.742;6.114;2022-07-29T01:30:26;19.60;99.00
12761;DHT22;6444;49.742;6.114;2022-07-29T01:32:55;19.50;99.30
12761;DHT22;6444;49.742;6.114;2022-07-29T01:35:26;19.30;99.60
12761;DHT22;6444;49.742;6.114;2022-07-29T01:38:04;19.30;99.40
12761;DHT22;6444;49.742;6.114;2022-07-29T01:40:22;18.90;99.90
12761;DHT22;6444;49.742;6.114;2022-07-29T01:42:57;19.30;99.70
12761;DHT22;6444;49.742;6.114;2022-07-29T01:45:29;19.50;98.80
12761;DHT22;6444;49.742;6.114;2022-07-29T01:48:13;19.70;98.40
12761;DHT22;6444;49.742;6.114;2022-07-29T01:51:12;19.40;98.90
12761;DHT22;6444;49.742;6.114;2022-07-29T01:53:38;19.40;98.90
12761;DHT22;6444;49.742;6.114;2022-07-29T01:56:02;19.20;99.10
12761;DHT22;6444;49.742;6.114;2022-07-29T01:58:31;19.40;98.50
12761;DHT22;6444;49.742;6.114;2022-07-29T02:00:57;19.40;98.50
12761;DHT22;6444;49.742;6.114;2022-07-29T02:03:23;19.50;98.60
12761;DHT22;6444;49.742;6.114;2022-07-29T02:05:50;19.40;98.60
12761;DHT22;6444;49.742;6.114;2022-07-29T02:08:16;19.30;98.80
12761;DHT22;6444;49.742;6.114;2022-07-29T02:10:44;19.20;99.00
12761;DHT22;6444;49.742;6.114;2022-07-29T02:13:11;19.20;99.00
12761;DHT22;6444;49.742;6.114;2022-07-29T02:15:37;19.30;98.80
12761;DHT22;6444;49.742;6.114;2022-07-29T02:18:14;19.30;98.90
12761;DHT22;6444;49.742;6.114;2022-07-29T02:20:36;19.40;98.70
12761;DHT22;6444;49.742;6.114;2022-07-29T02:23:02;19.40;98.60
12761;DHT22;6444;49.742;6.114;2022-07-29T02:25:29;19.40;98.80
12761;DHT22;6444;49.742;6.114;2022-07-29T02:27:56;19.50;98.40
12761;DHT22;6444;49.742;6.114;2022-07-29T02:30:22;19.60;98.40
12761;DHT22;6444;49.742;6.114;2022-07-29T02:32:49;19.60;98.40
12761;DHT22;6444;49.742;6.114;2022-07-29T02:35:16;19.50;98.60
12761;DHT22;6444;49.742;6.114;2022-07-29T02:37:43;19.50;98.50
12761;DHT22;6444;49.742;6.114;2022-07-29T02:40:10;19.60;98.30
12761;DHT22;6444;49.742;6.114;2022-07-29T02:42:36;19.80;98.20
12761;DHT22;6444;49.742;6.114;2022-07-29T02:45:03;19.20;99.40
12761;DHT22;6444;49.742;6.114;2022-07-29T02:47:45;18.80;99.90
12761;DHT22;6444;49.742;6.114;2022-07-29T02:50:21;19.10;99.90
12761;DHT22;6444;49.742;6.114;2022-07-29T02:52:52;19.50;99.20
12761;DHT22;6444;49.742;6.114;2022-07-29T02:57:41;19.70;99.10
12761;DHT22;6444;49.742;6.114;2022-07-29T03:00:07;19.70;99.10
12761;DHT22;6444;49.742;6.114;2022-07-29T03:02:36;19.80;99.20
12761;DHT22;6444;49.742;6.114;2022-07-29T03:05:01;19.80;99.40
12761;DHT22;6444;49.742;6.114;2022-07-29T03:07:27;19.80;99.30
12761;DHT22;6444;49.742;6.114;2022-07-29T03:09:54;19.30;99.90
12761;DHT22;6444;49.742;6.114;2022-07-29T03:12:20;19.00;99.90
12761;DHT22;6444;49.742;6.114;2022-07-29T03:14:47;19.30;99.90
12761;DHT22;6444;49.742;6.114;2022-07-29T03:17:14;19.50;99.90
12761;DHT22;6444;49.742;6.114;2022-07-29T03:19:40;19.50;99.90
12761;DHT22;6444;49.742;6.114;2022-07-29T03:22:08;18.30;99.90
12761;DHT22;6444;49.742;6.114;2022-07-29T03:24:35;18.20;99.90
12761;DHT22;6444;49.742;6.114;2022-07-29T03:27:01;18.30;99.90
12761;DHT22;6444;49.742;6.114;2022-07-29T03:29:27;18.80;99.90
12761;DHT22;6444;49.742;6.114;2022-07-29T03:31:54;19.10;99.90
12761;DHT22;6444;49.742;6.114;2022-07-29T03:34:22;19.30;99.70
12761;DHT22;6444;49.742;6.114;2022-07-29T03:36:48;19.30;99.70
12761;DHT22;6444;49.742;6.114;2022-07-29T03:39:16;19.40;99.70
12761;DHT22;6444;49.742;6.114;2022-07-29T03:41:41;19.30;99.70
12761;DHT22;6444;49.742;6.114;2022-07-29T03:44:09;19.20;99.90
12761;DHT22;6444;49.742;6.114;2022-07-29T03:46:35;19.20;99.90
12761;DHT22;6444;49.742;6.114;2022-07-29T03:49:03;19.10;99.90
12761;DHT22;6444;49.742;6.114;2022-07-29T03:51:29;19.10;99.90
12761;DHT22;6444;49.742;6.114;2022-07-29T03:53:55;18.90;99.90
12761;DHT22;6444;49.742;6.114;2022-07-29T03:56:23;19.00;99.90
12761;DHT22;6444;49.742;6.114;2022-07-29T03:58:52;19.00;99.90
12761;DHT22;6444;49.742;6.114;2022-07-29T04:01:19;18.90;99.90
12761;DHT22;6444;49.742;6.114;2022-07-29T04:03:46;18.80;99.90
12761;DHT22;6444;49.742;6.114;2022-07-29T04:06:13;18.90;99.90
12761;DHT22;6444;49.742;6.114;2022-07-29T04:08:39;18.80;99.90
12761;DHT22;6444;49.742;6.114;2022-07-29T04:11:06;18.90;99.90
12761;DHT22;6444;49.742;6.114;2022-07-29T04:13:33;18.80;99.90
12761;DHT22;6444;49.742;6.114;2022-07-29T04:15:59;18.80;99.90
12761;DHT22;6444;49.742;6.114;2022-07-29T04:18:26;18.70;99.90
12761;DHT22;6444;49.742;6.114;2022-07-29T04:20:52;18.70;99.90
12761;DHT22;6444;49.742;6.114;2022-07-29T04:23:19;18.20;99.90
12761;DHT22;6444;49.742;6.114;2022-07-29T04:25:46;18.30;99.90
12761;DHT22;6444;49.742;6.114;2022-07-29T04:28:12;18.30;99.90
12761;DHT22;6444;49.742;6.114;2022-07-29T04:30:39;18.20;99.90
12761;DHT22;6444;49.742;6.114;2022-07-29T04:33:06;17.90;99.90
12761;DHT22;6444;49.742;6.114;2022-07-29T04:35:36;17.80;99.90
12761;DHT22;6444;49.742;6.114;2022-07-29T04:38:02;18.00;99.90
12761;DHT22;6444;49.742;6.114;2022-07-29T04:40:29;18.20;99.90
12761;DHT22;6444;49.742;6.114;2022-07-29T04:45:30;18.50;99.90
12761;DHT22;6444;49.742;6.114;2022-07-29T04:47:57;18.20;99.90
12761;DHT22;6444;49.742;6.114;2022-07-29T04:50:24;18.20;99.90
12761;DHT22;6444;49.742;6.114;2022-07-29T04:52:50;18.40;99.90
12761;DHT22;6444;49.742;6.114;2022-07-29T04:55:17;18.50;99.90
12761;DHT22;6444;49.742;6.114;2022-07-29T04:57:43;18.60;99.90
12761;DHT22;6444;49.742;6.114;2022-07-29T05:00:11;18.60;99.90
12761;DHT22;6444;49.742;6.114;2022-07-29T05:02:38;18.60;99.90
12761;DHT22;6444;49.742;6.114;2022-07-29T05:05:05;18.80;99.90
12761;DHT22;6444;49.742;6.114;2022-07-29T05:07:31;19.10;99.90
12761;DHT22;6444;49.742;6.114;2022-07-29T05:09:58;20.10;99.90
12761;DHT22;6444;49.742;6.114;2022-07-29T05:12:25;22.30;97.40
12761;DHT22;6444;49.742;6.114;2022-07-29T05:14:52;22.20;97.30
12761;DHT22;6444;49.742;6.114;2022-07-29T05:17:18;23.40;95.10
12761;DHT22;6444;49.742;6.114;2022-07-29T05:19:45;24.30;94.20
12761;DHT22;6444;49.742;6.114;2022-07-29T05:22:11;25.30;92.40
12761;DHT22;6444;49.742;6.114;2022-07-29T05:24:38;25.80;91.20
12761;DHT22;6444;49.742;6.114;2022-07-29T05:27:05;26.30;90.40
12761;DHT22;6444;49.742;6.114;2022-07-29T05:29:31;26.00;90.80
12761;DHT22;6444;49.742;6.114;2022-07-29T05:31:58;25.70;90.80
12761;DHT22;6444;49.742;6.114;2022-07-29T05:34:25;25.40;91.70
12761;DHT22;6444;49.742;6.114;2022-07-29T05:36:51;25.80;91.10
12761;DHT22;6444;49.742;6.114;2022-07-29T05:39:18;26.30;91.00
12761;DHT22;6444;49.742;6.114;2022-07-29T05:41:44;26.90;90.00
12761;DHT22;6444;49.742;6.114;2022-07-29T05:44:11;27.70;87.20
12761;DHT22;6444;49.742;6.114;2022-07-29T05:46:38;28.30;85.80
12761;DHT22;6444;49.742;6.114;2022-07-29T05:49:05;28.80;83.50
12761;DHT22;6444;49.742;6.114;2022-07-29T05:51:32;28.70;83.30
12761;DHT22;6444;49.742;6.114;2022-07-29T05:53:58;29.30;82.40
12761;DHT22;6444;49.742;6.114;2022-07-29T05:56:25;30.00;80.70
12761;DHT22;6444;49.742;6.114;2022-07-29T05:58:52;30.90;78.50
12761;DHT22;6444;49.742;6.114;2022-07-29T06:01:19;31.70;77.80
12761;DHT22;6444;49.742;6.114;2022-07-29T06:03:46;31.60;77.60
12761;DHT22;6444;49.742;6.114;2022-07-29T06:06:12;33.90;74.60
12761;DHT22;6444;49.742;6.114;2022-07-29T06:08:39;36.00;70.80
12761;DHT22;6444;49.742;6.114;2022-07-29T06:11:06;37.60;66.00
12761;DHT22;6444;49.742;6.114;2022-07-29T06:13:35;38.90;62.90
12761;DHT22;6444;49.742;6.114;2022-07-29T06:16:02;38.10;63.10
12761;DHT22;6444;49.742;6.114;2022-07-29T06:18:28;38.90;60.90
12761;DHT22;6444;49.742;6.114;2022-07-29T06:20:55;37.90;58.90
12761;DHT22;6444;49.742;6.114;2022-07-29T06:23:21;34.90;63.20
12761;DHT22;6444;49.742;6.114;2022-07-29T06:25:48;34.20;65.30
12761;DHT22;6444;49.742;6.114;2022-07-29T06:28:15;36.00;63.80
12761;DHT22;6444;49.742;6.114;2022-07-29T06:30:41;38.10;60.00
12761;DHT22;6444;49.742;6.114;2022-07-29T06:33:08;40.00;58.50
12761;DHT22;6444;49.742;6.114;2022-07-29T06:35:35;41.50;56.80
12761;DHT22;6444;49.742;6.114;2022-07-29T06:38:04;42.60;55.20
12761;DHT22;6444;49.742;6.114;2022-07-29T06:40:31;43.40;53.10
12761;DHT22;6444;49.742;6.114;2022-07-29T06:43:15;43.00;52.20
12761;DHT22;6444;49.742;6.114;2022-07-29T06:45:42;43.70;52.90
12761;DHT22;6444;49.742;6.114;2022-07-29T06:48:09;44.90;50.70
12761;DHT22;6444;49.742;6.114;2022-07-29T06:50:35;45.10;50.60
12761;DHT22;6444;49.742;6.114;2022-07-29T06:53:02;45.80;49.80
12761;DHT22;6444;49.742;6.114;2022-07-29T06:55:28;44.10;49.30
12761;DHT22;6444;49.742;6.114;2022-07-29T06:57:55;40.90;51.60
12761;DHT22;6444;49.742;6.114;2022-07-29T07:00:21;40.90;52.90
12761;DHT22;6444;49.742;6.114;2022-07-29T07:02:48;43.40;49.90
12761;DHT22;6444;49.742;6.114;2022-07-29T07:05:15;43.70;50.10
12761;DHT22;6444;49.742;6.114;2022-07-29T07:07:41;44.30;47.50
12761;DHT22;6444;49.742;6.114;2022-07-29T07:10:08;42.70;49.60
12761;DHT22;6444;49.742;6.114;2022-07-29T07:12:35;43.30;49.60
12761;DHT22;6444;49.742;6.114;2022-07-29T07:15:01;44.40;48.50
12761;DHT22;6444;49.742;6.114;2022-07-29T07:17:28;44.50;47.20
12761;DHT22;6444;49.742;6.114;2022-07-29T07:19:55;43.40;48.70
12761;DHT22;6444;49.742;6.114;2022-07-29T07:22:21;42.70;47.50
12761;DHT22;6444;49.742;6.114;2022-07-29T07:24:48;42.00;48.80
12761;DHT22;6444;49.742;6.114;2022-07-29T07:27:14;42.40;49.30
12761;DHT22;6444;49.742;6.114;2022-07-29T07:29:41;43.40;47.80
12761;DHT22;6444;49.742;6.114;2022-07-29T07:32:08;43.40;47.90
12761;DHT22;6444;49.742;6.114;2022-07-29T07:34:34;40.70;49.60
12761;DHT22;6444;49.742;6.114;2022-07-29T07:37:01;38.00;52.20
12761;DHT22;6444;49.742;6.114;2022-07-29T07:39:28;37.10;53.30
12761;DHT22;6444;49.742;6.114;2022-07-29T07:41:54;36.80;53.70
12761;DHT22;6444;49.742;6.114;2022-07-29T07:44:21;37.20;54.30
12761;DHT22;6444;49.742;6.114;2022-07-29T07:46:47;38.10;52.80
12761;DHT22;6444;49.742;6.114;2022-07-29T07:49:14;38.70;50.80
12761;DHT22;6444;49.742;6.114;2022-07-29T07:51:41;38.20;51.50
12761;DHT22;6444;49.742;6.114;2022-07-29T07:54:07;38.50;51.10
12761;DHT22;6444;49.742;6.114;2022-07-29T07:56:34;37.20;53.20
12761;DHT22;6444;49.742;6.114;2022-07-29T07:59:01;37.80;53.10
12761;DHT22;6444;49.742;6.114;2022-07-29T08:01:27;38.30;51.00
12761;DHT22;6444;49.742;6.114;2022-07-29T08:03:55;39.00;50.80
12761;DHT22;6444;49.742;6.114;2022-07-29T08:06:21;39.00;50.80
12761;DHT22;6444;49.742;6.114;2022-07-29T08:08:48;39.80;51.20
12761;DHT22;6444;49.742;6.114;2022-07-29T08:11:14;40.70;49.90
12761;DHT22;6444;49.742;6.114;2022-07-29T08:13:42;41.40;48.40
12761;DHT22;6444;49.742;6.114;2022-07-29T08:16:09;41.30;48.30
12761;DHT22;6444;49.742;6.114;2022-07-29T08:18:39;39.20;49.70
12761;DHT22;6444;49.742;6.114;2022-07-29T08:21:05;35.20;54.10
12761;DHT22;6444;49.742;6.114;2022-07-29T08:23:31;33.30;56.40
12761;DHT22;6444;49.742;6.114;2022-07-29T08:25:58;33.80;57.00
12761;DHT22;6444;49.742;6.114;2022-07-29T08:28:24;33.70;56.80
12761;DHT22;6444;49.742;6.114;2022-07-29T08:30:51;35.00;56.40
12761;DHT22;6444;49.742;6.114;2022-07-29T08:33:18;34.80;56.80
12761;DHT22;6444;49.742;6.114;2022-07-29T08:35:44;36.80;55.00
12761;DHT22;6444;49.742;6.114;2022-07-29T08:38:11;39.70;50.80
12761;DHT22;6444;49.742;6.114;2022-07-29T08:40:37;41.50;50.00
12761;DHT22;6444;49.742;6.114;2022-07-29T08:43:06;42.60;48.30
12761;DHT22;6444;49.742;6.114;2022-07-29T08:45:46;42.90;49.00
12761;DHT22;6444;49.742;6.114;2022-07-29T08:48:12;42.50;47.90
12761;DHT22;6444;49.742;6.114;2022-07-29T08:50:38;41.00;49.80
12761;DHT22;6444;49.742;6.114;2022-07-29T08:53:05;40.10;49.50
12761;DHT22;6444;49.742;6.114;2022-07-29T08:55:31;39.60;49.30
12761;DHT22;6444;49.742;6.114;2022-07-29T08:57:58;39.10;50.80
12761;DHT22;6444;49.742;6.114;2022-07-29T09:00:25;38.00;52.60
12761;DHT22;6444;49.742;6.114;2022-07-29T09:02:55;37.40;52.60
12761;DHT22;6444;49.742;6.114;2022-07-29T09:05:18;34.50;55.70
12761;DHT22;6444;49.742;6.114;2022-07-29T09:07:45;34.40;57.90
12761;DHT22;6444;49.742;6.114;2022-07-29T09:10:12;34.40;57.80
12761;DHT22;6444;49.742;6.114;2022-07-29T09:12:38;35.90;54.60
12761;DHT22;6444;49.742;6.114;2022-07-29T09:15:05;35.00;55.40
12761;DHT22;6444;49.742;6.114;2022-07-29T09:17:48;36.60;54.90
12761;DHT22;6444;49.742;6.114;2022-07-29T09:20:17;37.10;55.40
12761;DHT22;6444;49.742;6.114;2022-07-29T09:22:43;38.20;53.50
12761;DHT22;6444;49.742;6.114;2022-07-29T09:25:11;39.50;51.10
12761;DHT22;6444;49.742;6.114;2022-07-29T09:27:37;39.40;51.00
12761;DHT22;6444;49.742;6.114;2022-07-29T09:30:04;39.50;50.40
12761;DHT22;6444;49.742;6.114;2022-07-29T09:32:31;39.40;50.70
12761;DHT22;6444;49.742;6.114;2022-07-29T09:35:20;39.40;50.50
12761;DHT22;6444;49.742;6.114;2022-07-29T09:37:46;39.70;51.50
12761;DHT22;6444;49.742;6.114;2022-07-29T09:40:16;40.80;50.30
12761;DHT22;6444;49.742;6.114;2022-07-29T09:42:42;37.80;53.50
12761;DHT22;6444;49.742;6.114;2022-07-29T09:45:09;38.20;52.10
12761;DHT22;6444;49.742;6.114;2022-07-29T09:47:45;37.50;53.30
12761;DHT22;6444;49.742;6.114;2022-07-29T09:50:13;38.60;52.00
12761;DHT22;6444;49.742;6.114;2022-07-29T09:52:47;39.60;50.90
12761;DHT22;6444;49.742;6.114;2022-07-29T09:55:13;39.50;52.50
12761;DHT22;6444;49.742;6.114;2022-07-29T09:57:39;38.00;51.40
12761;DHT22;6444;49.742;6.114;2022-07-29T10:00:07;36.20;54.30
12761;DHT22;6444;49.742;6.114;2022-07-29T10:02:33;36.00;56.70
12761;DHT22;6444;49.742;6.114;2022-07-29T10:05:00;37.20;55.00
12761;DHT22;6444;49.742;6.114;2022-07-29T10:07:26;38.30;53.80
12761;DHT22;6444;49.742;6.114;2022-07-29T10:09:56;40.00;51.40
12761;DHT22;6444;49.742;6.114;2022-07-29T10:12:22;40.50;51.60
12761;DHT22;6444;49.742;6.114;2022-07-29T10:14:49;38.10;52.60
12761;DHT22;6444;49.742;6.114;2022-07-29T10:17:16;38.00;52.60
12761;DHT22;6444;49.742;6.114;2022-07-29T10:19:42;35.60;55.70
12761;DHT22;6444;49.742;6.114;2022-07-29T10:22:09;34.30;56.30
12761;DHT22;6444;49.742;6.114;2022-07-29T10:24:36;33.70;57.10
12761;DHT22;6444;49.742;6.114;2022-07-29T10:27:03;34.10;56.30
12761;DHT22;6444;49.742;6.114;2022-07-29T10:29:29;34.00;56.80
12761;DHT22;6444;49.742;6.114;2022-07-29T10:32:20;33.00;58.60
12761;DHT22;6444;49.742;6.114;2022-07-29T10:43:22;35.70;57.90
12761;DHT22;6444;49.742;6.114;2022-07-29T10:45:49;39.40;52.20
12761;DHT22;6444;49.742;6.114;2022-07-29T10:48:16;39.30;52.10
12761;DHT22;6444;49.742;6.114;2022-07-29T10:51:01;37.50;52.70
12761;DHT22;6444;49.742;6.114;2022-07-29T10:56:27;37.40;53.00
12761;DHT22;6444;49.742;6.114;2022-07-29T11:01:48;35.60;54.00
12761;DHT22;6444;49.742;6.114;2022-07-29T11:04:14;35.00;56.10
12761;DHT22;6444;49.742;6.114;2022-07-29T11:09:32;33.80;57.00
12761;DHT22;6444;49.742;6.114;2022-07-29T11:11:59;33.70;56.90
12761;DHT22;6444;49.742;6.114;2022-07-29T11:17:23;32.40;59.00
12761;DHT22;6444;49.742;6.114;2022-07-29T11:19:49;33.70;58.70
12761;DHT22;6444;49.742;6.114;2022-07-29T11:22:35;37.00;54.10
12761;DHT22;6444;49.742;6.114;2022-07-29T11:25:17;37.00;54.20
12761;DHT22;6444;49.742;6.114;2022-07-29T11:27:46;37.20;54.70
12761;DHT22;6444;49.742;6.114;2022-07-29T11:30:13;37.60;53.90
12761;DHT22;6444;49.742;6.114;2022-07-29T11:32:43;37.50;53.30
12761;DHT22;6444;49.742;6.114;2022-07-29T11:35:13;37.90;53.20
12761;DHT22;6444;49.742;6.114;2022-07-29T11:37:39;38.40;51.90
12761;DHT22;6444;49.742;6.114;2022-07-29T11:45:17;38.00;52.10
12761;DHT22;6444;49.742;6.114;2022-07-29T11:47:47;36.90;53.10
12761;DHT22;6444;49.742;6.114;2022-07-29T11:50:13;35.70;54.60
12761;DHT22;6444;49.742;6.114;2022-07-29T11:52:40;36.00;54.50
12761;DHT22;6444;49.742;6.114;2022-07-29T11:55:12;36.90;54.00
12761;DHT22;6444;49.742;6.114;2022-07-29T11:57:44;37.70;51.30
12761;DHT22;6444;49.742;6.114;2022-07-29T12:00:05;38.10;51.80
12761;DHT22;6444;49.742;6.114;2022-07-29T12:02:40;37.40;53.30
12761;DHT22;6444;49.742;6.114;2022-07-29T12:05:05;38.20;53.10
12761;DHT22;6444;49.742;6.114;2022-07-29T12:07:32;38.10;52.90
12761;DHT22;6444;49.742;6.114;2022-07-29T12:09:58;39.10;52.30
12761;DHT22;6444;49.742;6.114;2022-07-29T12:12:25;39.20;51.40
12761;DHT22;6444;49.742;6.114;2022-07-29T12:14:52;40.20;50.60
12761;DHT22;6444;49.742;6.114;2022-07-29T12:19:54;37.60;52.80
12761;DHT22;6444;49.742;6.114;2022-07-29T12:22:26;37.90;51.90
12761;DHT22;6444;49.742;6.114;2022-07-29T12:24:53;37.70;51.50
12761;DHT22;6444;49.742;6.114;2022-07-29T12:27:19;36.40;52.30
12761;DHT22;6444;49.742;6.114;2022-07-29T12:29:58;33.60;55.30
12761;DHT22;6444;49.742;6.114;2022-07-29T12:32:30;32.00;57.60
12761;DHT22;6444;49.742;6.114;2022-07-29T12:34:51;31.50;59.20
12761;DHT22;6444;49.742;6.114;2022-07-29T12:37:17;31.70;58.30
12761;DHT22;6444;49.742;6.114;2022-07-29T12:39:44;32.80;56.60
12761;DHT22;6444;49.742;6.114;2022-07-29T12:42:14;32.90;57.40
12761;DHT22;6444;49.742;6.114;2022-07-29T12:44:47;33.00;57.40
12761;DHT22;6444;49.742;6.114;2022-07-29T12:47:13;33.80;56.80
12761;DHT22;6444;49.742;6.114;2022-07-29T12:49:39;34.30;54.90
12761;DHT22;6444;49.742;6.114;2022-07-29T12:52:34;34.50;55.10
12761;DHT22;6444;49.742;6.114;2022-07-29T12:55:00;33.30;56.10
12761;DHT22;6444;49.742;6.114;2022-07-29T12:57:27;32.20;57.30
12761;DHT22;6444;49.742;6.114;2022-07-29T13:00:09;31.60;59.00
12761;DHT22;6444;49.742;6.114;2022-07-29T13:02:36;31.50;58.50
12761;DHT22;6444;49.742;6.114;2022-07-29T13:05:03;31.40;58.40
12761;DHT22;6444;49.742;6.114;2022-07-29T13:07:30;32.00;58.70
12761;DHT22;6444;49.742;6.114;2022-07-29T13:10:15;33.40;56.70
12761;DHT22;6444;49.742;6.114;2022-07-29T13:13:06;33.80;55.20
12761;DHT22;6444;49.742;6.114;2022-07-29T13:15:33;34.80;54.50
12761;DHT22;6444;49.742;6.114;2022-07-29T13:17:59;34.80;54.40
12761;DHT22;6444;49.742;6.114;2022-07-29T13:20:27;34.20;55.20
12761;DHT22;6444;49.742;6.114;2022-07-29T13:22:52;34.30;54.90
12761;DHT22;6444;49.742;6.114;2022-07-29T13:25:26;34.60;55.70
12761;DHT22;6444;49.742;6.114;2022-07-29T13:27:52;34.90;54.60
12761;DHT22;6444;49.742;6.114;2022-07-29T13:30:18;34.90;54.60
12761;DHT22;6444;49.742;6.114;2022-07-29T13:32:45;34.60;54.70
12761;DHT22;6444;49.742;6.114;2022-07-29T13:35:12;34.30;55.10
12761;DHT22;6444;49.742;6.114;2022-07-29T13:37:38;34.20;55.80
12761;DHT22;6444;49.742;6.114;2022-07-29T13:40:06;33.60;56.60
12761;DHT22;6444;49.742;6.114;2022-07-29T13:42:32;33.30;57.10
12761;DHT22;6444;49.742;6.114;2022-07-29T13:44:58;33.30;57.00
12761;DHT22;6444;49.742;6.114;2022-07-29T13:47:25;33.50;56.90
12761;DHT22;6444;49.742;6.114;2022-07-29T13:49:51;33.30;57.40
12761;DHT22;6444;49.742;6.114;2022-07-29T13:52:19;33.00;57.70
12761;DHT22;6444;49.742;6.114;2022-07-29T13:54:46;33.00;57.60
12761;DHT22;6444;49.742;6.114;2022-07-29T13:57:12;33.10;57.30
12761;DHT22;6444;49.742;6.114;2022-07-29T13:59:40;33.10;57.30
12761;DHT22;6444;49.742;6.114;2022-07-29T14:02:06;33.10;57.20
12761;DHT22;6444;49.742;6.114;2022-07-29T14:04:33;33.40;57.00
12761;DHT22;6444;49.742;6.114;2022-07-29T14:06:59;33.50;56.90
12761;DHT22;6444;49.742;6.114;2022-07-29T14:09:27;33.60;55.80
12761;DHT22;6444;49.742;6.114;2022-07-29T14:11:53;33.60;55.70
12761;DHT22;6444;49.742;6.114;2022-07-29T14:14:20;33.60;56.80
12761;DHT22;6444;49.742;6.114;2022-07-29T14:16:47;34.00;56.30
12761;DHT22;6444;49.742;6.114;2022-07-29T14:19:14;34.20;55.70
12761;DHT22;6444;49.742;6.114;2022-07-29T14:21:40;34.20;55.90
12761;DHT22;6444;49.742;6.114;2022-07-29T14:24:07;34.30;56.20
12761;DHT22;6444;49.742;6.114;2022-07-29T14:26:33;34.10;55.80
12761;DHT22;6444;49.742;6.114;2022-07-29T14:29:00;34.00;55.50
12761;DHT22;6444;49.742;6.114;2022-07-29T14:31:27;33.50;55.90
12761;DHT22;6444;49.742;6.114;2022-07-29T14:33:53;33.50;55.80
12761;DHT22;6444;49.742;6.114;2022-07-29T14:36:20;33.40;56.40
12761;DHT22;6444;49.742;6.114;2022-07-29T14:38:47;32.80;56.50
12761;DHT22;6444;49.742;6.114;2022-07-29T14:41:14;32.70;56.50
12761;DHT22;6444;49.742;6.114;2022-07-29T14:43:41;32.80;56.50
12761;DHT22;6444;49.742;6.114;2022-07-29T14:46:07;33.10;56.80
12761;DHT22;6444;49.742;6.114;2022-07-29T14:48:35;34.10;55.70
12761;DHT22;6444;49.742;6.114;2022-07-29T14:51:01;34.00;55.60
12761;DHT22;6444;49.742;6.114;2022-07-29T14:53:28;34.40;54.90
12761;DHT22;6444;49.742;6.114;2022-07-29T14:55:54;34.30;55.20
12761;DHT22;6444;49.742;6.114;2022-07-29T14:58:21;34.40;55.20
12761;DHT22;6444;49.742;6.114;2022-07-29T15:00:48;34.60;54.80
12761;DHT22;6444;49.742;6.114;2022-07-29T15:03:15;34.50;54.70
12761;DHT22;6444;49.742;6.114;2022-07-29T15:05:42;34.50;54.60
12761;DHT22;6444;49.742;6.114;2022-07-29T15:08:08;34.30;56.10
12761;DHT22;6444;49.742;6.114;2022-07-29T15:10:35;34.00;55.30
12761;DHT22;6444;49.742;6.114;2022-07-29T15:13:02;33.80;55.60
12761;DHT22;6444;49.742;6.114;2022-07-29T15:15:29;33.70;55.40
12761;DHT22;6444;49.742;6.114;2022-07-29T15:17:56;34.00;55.20
12761;DHT22;6444;49.742;6.114;2022-07-29T15:20:22;34.00;54.20
12761;DHT22;6444;49.742;6.114;2022-07-29T15:22:52;33.70;54.50
12761;DHT22;6444;49.742;6.114;2022-07-29T15:25:19;33.00;54.60
12761;DHT22;6444;49.742;6.114;2022-07-29T15:27:46;33.00;54.50
12761;DHT22;6444;49.742;6.114;2022-07-29T15:30:13;32.90;55.90
12761;DHT22;6444;49.742;6.114;2022-07-29T15:32:39;33.10;56.70
12761;DHT22;6444;49.742;6.114;2022-07-29T15:35:06;33.00;56.90
12761;DHT22;6444;49.742;6.114;2022-07-29T15:37:33;32.90;57.40
12761;DHT22;6444;49.742;6.114;2022-07-29T15:40:00;32.80;57.20
12761;DHT22;6444;49.742;6.114;2022-07-29T15:42:27;33.00;57.00
12761;DHT22;6444;49.742;6.114;2022-07-29T15:44:53;32.70;56.70
12761;DHT22;6444;49.742;6.114;2022-07-29T15:47:20;32.40;57.50
12761;DHT22;6444;49.742;6.114;2022-07-29T15:49:47;31.90;58.50
12761;DHT22;6444;49.742;6.114;2022-07-29T15:52:16;32.20;58.40
12761;DHT22;6444;49.742;6.114;2022-07-29T15:54:41;32.20;58.40
12761;DHT22;6444;49.742;6.114;2022-07-29T15:57:08;32.00;59.00
12761;DHT22;6444;49.742;6.114;2022-07-29T15:59:35;31.90;59.30
12761;DHT22;6444;49.742;6.114;2022-07-29T16:02:01;31.80;59.60
12761;DHT22;6444;49.742;6.114;2022-07-29T16:04:29;31.60;59.50
12761;DHT22;6444;49.742;6.114;2022-07-29T16:06:55;31.60;59.50
12761;DHT22;6444;49.742;6.114;2022-07-29T16:09:22;31.70;59.40
12761;DHT22;6444;49.742;6.114;2022-07-29T16:11:49;31.70;59.70
12761;DHT22;6444;49.742;6.114;2022-07-29T16:14:16;31.50;59.30
12761;DHT22;6444;49.742;6.114;2022-07-29T16:16:42;31.40;59.40
12761;DHT22;6444;49.742;6.114;2022-07-29T16:19:09;31.30;59.60
12761;DHT22;6444;49.742;6.114;2022-07-29T16:21:36;31.00;60.80
12761;DHT22;6444;49.742;6.114;2022-07-29T16:24:02;30.80;60.10
12761;DHT22;6444;49.742;6.114;2022-07-29T16:26:29;30.60;60.50
12761;DHT22;6444;49.742;6.114;2022-07-29T16:28:56;30.60;60.30